Time;durP1;ratioP1;P1;durP2;ratioP2;P2;SDS_P1;SDS_P2;PMS_P1;PMS_P2;Temp;Humidity;BMP_temperature;BMP_pressure;BME280_temperature;BME280_humidity;BME280_pressure;Samples;Min_cycle;Max_cycle;Signal;HPM_P1;HPM_P2
2021/07/27 00:00:19;;;;;;;4.13;2.60;;;;;;;-139.38;100.00;63230.50;5046118;28;20228;-69
2021/07/27 00:03:46;;;;;;;3.27;2.70;;;;;;;-139.38;100.00;63230.50;5057628;28;20204;-68
2021/07/27 00:07:13;;;;;;;6.40;3.10;;;;;;;-139.38;100.00;63230.50;5055180;28;20265;-68
2021/07/27 00:10:38;;;;;;;3.00;2.37;;;;;;;-139.38;100.00;63230.50;5054331;28;20235;-69
2021/07/27 00:14:05;;;;;;;3.90;2.63;;;;;;;-139.38;100.00;63230.50;5046737;28;20211;-69
2021/07/27 00:17:31;;;;;;;5.33;3.57;;;;;;;-139.38;100.00;63230.50;5064769;28;20210;-68
2021/07/27 00:20:57;;;;;;;6.53;3.07;;;;;;;-139.38;100.00;63230.50;5056780;28;20207;-68
2021/07/27 00:24:26;;;;;;;5.97;3.00;;;;;;;-139.38;100.00;63230.50;5048636;28;20217;-68
2021/07/27 00:27:52;;;;;;;4.33;3.10;;;;;;;-139.38;100.00;63230.50;5051582;28;20214;-68
2021/07/27 00:31:18;;;;;;;5.13;2.77;;;;;;;-139.38;100.00;63230.50;5051131;28;20602;-68
2021/07/27 00:34:44;;;;;;;4.37;2.93;;;;;;;-139.38;100.00;63230.50;5051066;28;20221;-69
2021/07/27 00:38:12;;;;;;;6.50;2.90;;;;;;;-139.38;100.00;63230.50;5051131;28;20308;-69
2021/07/27 00:41:40;;;;;;;3.70;2.90;;;;;;;-139.38;100.00;63230.50;5050514;28;20218;-69
2021/07/27 00:45:06;;;;;;;5.80;2.97;;;;;;;-139.38;100.00;63230.50;5042891;28;20212;-70
2021/07/27 00:48:32;;;;;;;7.03;3.13;;;;;;;-139.38;100.00;63230.50;5056199;28;20207;-69
2021/07/27 00:51:58;;;;;;;6.30;2.87;;;;;;;-139.38;100.00;63230.50;5053668;28;20294;-69
2021/07/27 00:55:24;;;;;;;3.20;2.90;;;;;;;-139.38;100.00;63230.50;5050820;28;20653;-70
2021/07/27 00:58:51;;;;;;;6.77;3.60;;;;;;;-139.38;100.00;63230.50;5035724;28;20227;-69
2021/07/27 01:02:17;;;;;;;4.13;3.30;;;;;;;-139.38;100.00;63230.50;5044359;28;20707;-69
2021/07/27 01:05:43;;;;;;;5.47;3.73;;;;;;;-139.38;100.00;63230.50;5041853;28;20299;-70
2021/07/27 01:09:09;;;;;;;4.90;3.37;;;;;;;-139.38;100.00;63230.50;5055212;28;20227;-70
2021/07/27 01:12:39;;;;;;;4.97;2.90;;;;;;;-139.38;100.00;63230.50;5059708;28;20207;-70
2021/07/27 01:16:09;;;;;;;6.40;3.80;;;;;;;-139.38;100.00;63230.50;5045638;28;20211;-69
2021/07/27 01:19:42;;;;;;;7.30;4.30;;;;;;;-139.38;100.00;63230.50;5039953;28;20232;-70
2021/07/27 01:38:20;;;;;;;9.70;4.27;;;;;;;-139.38;100.00;63230.50;5052093;28;20256;-69
2021/07/27 01:42:07;;;;;;;6.03;3.60;;;;;;;-139.38;100.00;63230.50;5041260;28;20194;-69
2021/07/27 01:45:33;;;;;;;5.53;3.77;;;;;;;-139.38;100.00;63230.50;5054412;28;20210;-69
2021/07/27 01:48:59;;;;;;;5.73;3.53;;;;;;;-139.38;100.00;63230.50;5046582;28;20228;-69
2021/07/27 01:52:26;;;;;;;5.47;3.67;;;;;;;-139.38;100.00;63230.50;5052729;28;20207;-70
2021/07/27 01:55:53;;;;;;;4.40;3.43;;;;;;;-139.38;100.00;63230.50;5044448;28;20340;-70
2021/07/27 01:59:19;;;;;;;6.07;4.27;;;;;;;-139.38;100.00;63230.50;5049640;28;20245;-70
2021/07/27 02:02:46;;;;;;;6.77;4.10;;;;;;;-139.38;100.00;63230.50;5050022;28;20199;-69
2021/07/27 02:06:12;;;;;;;7.30;3.93;;;;;;;-139.38;100.00;63230.50;5052786;28;20246;-70
2021/07/27 02:09:41;;;;;;;5.70;4.30;;;;;;;-139.38;100.00;63230.50;5046947;28;20224;-69
2021/07/27 02:13:13;;;;;;;5.07;3.70;;;;;;;-139.38;100.00;63230.50;5054941;28;20268;-69
2021/07/27 02:16:39;;;;;;;6.90;4.23;;;;;;;-139.38;100.00;63230.50;5053428;28;20629;-69
2021/07/27 02:20:06;;;;;;;7.30;3.90;;;;;;;-139.38;100.00;63230.50;5049084;28;20280;-69
2021/07/27 02:23:32;;;;;;;7.20;4.17;;;;;;;-139.38;100.00;63230.50;5042556;28;20203;-69
2021/07/27 02:26:59;;;;;;;7.97;3.83;;;;;;;-139.38;100.00;63230.50;5040141;28;20202;-69
2021/07/27 02:30:26;;;;;;;9.23;3.67;;;;;;;-139.38;100.00;63230.50;5042901;28;20239;-70
2021/07/27 02:33:52;;;;;;;7.63;4.10;;;;;;;-139.38;100.00;63230.50;5050783;28;20204;-70
2021/07/27 02:37:18;;;;;;;6.90;4.73;;;;;;;-139.38;100.00;63230.50;5047848;28;20211;-69
2021/07/27 02:40:43;;;;;;;7.97;4.53;;;;;;;-139.38;100.00;63230.50;5042382;28;20223;-70
2021/07/27 02:44:10;;;;;;;6.47;4.23;;;;;;;-139.38;100.00;63230.50;5051260;28;20218;-70
2021/07/27 02:47:36;;;;;;;5.40;4.10;;;;;;;-139.38;100.00;63230.50;5042073;28;20207;-70
2021/07/27 02:51:02;;;;;;;7.60;3.77;;;;;;;-139.38;100.00;63230.50;5046101;28;20284;-69
2021/07/27 02:54:29;;;;;;;7.13;3.90;;;;;;;-139.38;100.00;63230.50;5053128;28;20678;-67
2021/07/27 02:57:54;;;;;;;9.40;4.73;;;;;;;-139.38;100.00;63230.50;5043284;28;20202;-70
2021/07/27 03:01:22;;;;;;;7.47;3.70;;;;;;;-139.38;100.00;63230.50;5054072;28;20222;-70
2021/07/27 03:04:48;;;;;;;7.30;4.57;;;;;;;-139.38;100.00;63230.50;5059007;28;20209;-69
2021/07/27 03:08:19;;;;;;;9.80;4.10;;;;;;;-139.38;100.00;63230.50;5042277;28;20208;-69
2021/07/27 03:11:44;;;;;;;5.73;4.10;;;;;;;-139.38;100.00;63230.50;5043634;28;20730;-69
2021/07/27 03:15:10;;;;;;;9.43;3.97;;;;;;;-139.38;100.00;63230.50;5054838;28;20206;-69
2021/07/27 03:18:38;;;;;;;7.77;4.80;;;;;;;-139.38;100.00;63230.50;5049382;28;20207;-70
2021/07/27 03:22:04;;;;;;;9.53;4.60;;;;;;;-139.38;100.00;63230.50;5057565;28;20230;-70
2021/07/27 03:25:29;;;;;;;10.33;4.80;;;;;;;-139.38;100.00;63230.50;5054336;28;20204;-69
2021/07/27 03:28:55;;;;;;;6.03;4.47;;;;;;;-139.38;100.00;63230.50;5062195;28;20224;-70
2021/07/27 03:32:21;;;;;;;5.73;4.33;;;;;;;-139.38;100.00;63230.50;5058381;28;20589;-68
2021/07/27 03:35:48;;;;;;;5.87;4.07;;;;;;;-139.38;100.00;63230.50;5045602;28;20213;-69
2021/07/27 03:39:14;;;;;;;7.60;4.50;;;;;;;-139.38;100.00;63230.50;5061840;28;20257;-70
2021/07/27 03:42:40;;;;;;;8.87;5.03;;;;;;;-139.38;100.00;63230.50;5049337;28;20201;-68
2021/07/27 03:46:06;;;;;;;6.87;4.30;;;;;;;-139.38;100.00;63230.50;5047749;28;20214;-68
2021/07/27 03:49:32;;;;;;;6.40;4.17;;;;;;;-139.38;100.00;63230.50;5049623;28;20228;-68
2021/07/27 03:53:01;;;;;;;7.60;5.23;;;;;;;-139.38;100.00;63230.50;5054314;28;20228;-69
2021/07/27 03:56:27;;;;;;;5.23;3.90;;;;;;;-139.38;100.00;63230.50;5052784;28;20219;-69
2021/07/27 03:59:52;;;;;;;8.83;4.40;;;;;;;-139.38;100.00;63230.50;5042989;28;20243;-69
2021/07/27 04:03:18;;;;;;;6.47;4.40;;;;;;;-139.38;100.00;63230.50;5054618;28;20203;-70
2021/07/27 04:06:44;;;;;;;6.93;4.30;;;;;;;-139.38;100.00;63230.50;5046905;28;20209;-69
2021/07/27 04:10:11;;;;;;;7.67;4.47;;;;;;;-139.38;100.00;63230.50;5054880;28;20229;-68
2021/07/27 04:13:37;;;;;;;6.27;4.23;;;;;;;-139.38;100.00;63230.50;5045975;28;20224;-69
2021/07/27 04:17:03;;;;;;;7.73;4.43;;;;;;;-139.38;100.00;63230.50;5047127;28;20297;-69
2021/07/27 04:20:29;;;;;;;6.93;4.60;;;;;;;-139.38;100.00;63230.50;5055399;28;20706;-69
2021/07/27 04:23:55;;;;;;;5.83;4.33;;;;;;;-139.38;100.00;63230.50;5053100;28;20199;-74
2021/07/27 04:27:23;;;;;;;7.97;4.70;;;;;;;-139.38;100.00;63230.50;5053687;28;20578;-69
2021/07/27 04:30:49;;;;;;;6.40;4.50;;;;;;;-139.38;100.00;63230.50;5049307;28;20210;-69
2021/07/27 04:34:15;;;;;;;8.07;4.40;;;;;;;-139.38;100.00;63230.50;5046067;28;20207;-72
2021/07/27 04:37:41;;;;;;;6.77;4.27;;;;;;;-139.38;100.00;63230.50;5048906;28;20204;-69
2021/07/27 04:41:08;;;;;;;5.93;4.30;;;;;;;-139.38;100.00;63230.50;5046076;28;20219;-71
2021/07/27 04:44:36;;;;;;;8.60;4.20;;;;;;;-139.38;100.00;63230.50;5057792;28;20756;-71
2021/07/27 04:48:03;;;;;;;6.97;4.00;;;;;;;-139.38;100.00;63230.50;5052640;28;20207;-69
2021/07/27 04:51:29;;;;;;;7.87;4.40;;;;;;;-139.38;100.00;63230.50;5046279;28;20208;-70
2021/07/27 04:54:55;;;;;;;7.37;4.47;;;;;;;-139.38;100.00;63230.50;5055705;28;20206;-69
2021/07/27 04:58:21;;;;;;;7.50;4.40;;;;;;;-139.38;100.00;63230.50;5056446;28;20206;-69
2021/07/27 05:01:48;;;;;;;11.30;3.80;;;;;;;-139.38;100.00;63230.50;5044760;28;20208;-69
2021/07/27 05:05:14;;;;;;;6.67;3.97;;;;;;;-139.38;100.00;63230.50;5048258;28;20598;-70
2021/07/27 05:08:42;;;;;;;6.00;3.83;;;;;;;-139.38;100.00;63230.50;5052218;28;20229;-69
2021/07/27 05:12:08;;;;;;;11.53;4.57;;;;;;;-139.38;100.00;63230.50;5055387;28;20262;-70
2021/07/27 05:15:34;;;;;;;6.63;4.17;;;;;;;-139.38;100.00;63230.50;5051210;28;20220;-68
2021/07/27 05:19:16;;;;;;;6.43;4.00;;;;;;;-139.38;100.00;63230.50;5041362;28;20233;-68
2021/07/27 05:22:42;;;;;;;6.33;4.23;;;;;;;-139.38;100.00;63230.50;5033819;28;20198;-69
2021/07/27 05:26:08;;;;;;;8.20;3.93;;;;;;;-139.38;100.00;63230.50;5043612;28;20546;-68
2021/07/27 05:29:34;;;;;;;4.53;3.70;;;;;;;-139.38;100.00;63230.50;5045909;28;20237;-67
2021/07/27 05:33:02;;;;;;;4.57;3.53;;;;;;;-139.38;100.00;63230.50;5043306;28;20226;-69
2021/07/27 05:36:28;;;;;;;5.27;3.57;;;;;;;-139.38;100.00;63230.50;5053945;28;20300;-69
2021/07/27 05:39:55;;;;;;;6.07;3.90;;;;;;;-139.38;100.00;63230.50;5052497;28;20249;-69
2021/07/27 05:43:21;;;;;;;9.10;3.80;;;;;;;-139.38;100.00;63230.50;5047054;28;20216;-69
2021/07/27 05:46:47;;;;;;;5.70;3.33;;;;;;;-139.38;100.00;63230.50;5046949;28;20202;-69
2021/07/27 05:50:14;;;;;;;7.20;3.70;;;;;;;-139.38;100.00;63230.50;5043463;28;20221;-69
2021/07/27 05:53:41;;;;;;;5.90;3.43;;;;;;;-139.38;100.00;63230.50;5046236;28;20307;-69
2021/07/27 05:57:10;;;;;;;5.20;3.60;;;;;;;-139.38;100.00;63230.50;5042271;28;20214;-70
2021/07/27 06:00:36;;;;;;;5.00;3.50;;;;;;;-139.38;100.00;63230.50;5045610;28;20228;-72
2021/07/27 06:04:02;;;;;;;6.30;3.80;;;;;;;-139.38;100.00;63230.50;5047817;28;20267;-71
2021/07/27 06:07:31;;;;;;;6.13;3.53;;;;;;;-139.38;100.00;63230.50;5052206;28;20225;-72
2021/07/27 06:10:57;;;;;;;9.83;6.10;;;;;;;-139.38;100.00;63230.50;5039973;28;20305;-71
2021/07/27 06:14:24;;;;;;;5.40;3.50;;;;;;;-139.38;100.00;63230.50;5045886;28;20696;-72
2021/07/27 06:17:49;;;;;;;5.27;3.50;;;;;;;-139.38;100.00;63230.50;5044259;28;20213;-72
2021/07/27 06:21:15;;;;;;;6.83;3.67;;;;;;;-139.38;100.00;63230.50;5048671;28;20211;-71
2021/07/27 06:24:43;;;;;;;6.57;3.27;;;;;;;-139.38;100.00;63230.50;5048329;28;20203;-71
2021/07/27 06:28:09;;;;;;;3.20;2.83;;;;;;;-139.38;100.00;63230.50;5045670;28;20291;-69
2021/07/27 06:31:35;;;;;;;3.80;3.00;;;;;;;-139.38;100.00;63230.50;5054538;28;20215;-70
2021/07/27 06:35:01;;;;;;;5.50;3.07;;;;;;;-139.38;100.00;63230.50;5046687;28;20231;-70
2021/07/27 06:38:26;;;;;;;5.37;3.23;;;;;;;-139.38;100.00;63230.50;5046223;28;20201;-71
2021/07/27 06:41:55;;;;;;;4.60;3.53;;;;;;;-139.38;100.00;63230.50;5046888;28;20679;-70
2021/07/27 06:45:21;;;;;;;5.53;3.30;;;;;;;-139.38;100.00;63230.50;5048638;28;20867;-70
2021/07/27 06:48:47;;;;;;;4.63;3.30;;;;;;;-139.38;100.00;63230.50;5050608;28;20227;-70
2021/07/27 06:52:13;;;;;;;3.97;3.30;;;;;;;-139.38;100.00;63230.50;5045887;28;20210;-70
2021/07/27 06:55:39;;;;;;;5.50;3.57;;;;;;;-139.38;100.00;63230.50;5048163;28;21011;-71
2021/07/27 06:59:06;;;;;;;6.50;3.50;;;;;;;-139.38;100.00;63230.50;5046338;28;20245;-69
2021/07/27 07:02:34;;;;;;;7.77;3.57;;;;;;;-139.38;100.00;63230.50;5045864;28;20212;-69
2021/07/27 07:06:00;;;;;;;5.83;3.07;;;;;;;-139.38;100.00;63230.50;5041971;28;20265;-70
2021/07/27 07:09:26;;;;;;;3.77;2.93;;;;;;;-139.38;100.00;63230.50;5038728;28;20228;-70
2021/07/27 07:12:51;;;;;;;5.00;3.43;;;;;;;-139.38;100.00;63230.50;5049969;28;20210;-69
2021/07/27 07:16:19;;;;;;;6.20;3.80;;;;;;;-139.38;100.00;63230.50;5042824;28;20217;-71
2021/07/27 07:19:45;;;;;;;5.07;3.50;;;;;;;-139.38;100.00;63230.50;5048080;28;20222;-71
2021/07/27 07:23:11;;;;;;;6.72;3.42;;;;;;;-139.38;100.00;63230.50;5048507;28;20685;-70
2021/07/27 07:26:37;;;;;;;3.65;3.08;;;;;;;-139.38;100.00;63230.50;5034375;28;20202;-72
2021/07/27 07:30:03;;;;;;;5.13;3.10;;;;;;;-139.38;100.00;63230.50;5044780;28;20230;-71
2021/07/27 07:33:30;;;;;;;4.63;3.58;;;;;;;-139.38;100.00;63230.50;5043257;28;20210;-73
2021/07/27 07:36:56;;;;;;;6.65;3.58;;;;;;;-139.38;100.00;63230.50;5043373;28;20213;-69
2021/07/27 07:40:22;;;;;;;4.30;3.50;;;;;;;-139.38;100.00;63230.50;5042982;28;20713;-72
2021/07/27 07:43:49;;;;;;;4.00;3.13;;;;;;;-139.38;100.00;63230.50;5042878;28;20209;-71
2021/07/27 07:47:15;;;;;;;6.40;3.47;;;;;;;-139.38;100.00;63230.50;5049873;28;20217;-73
2021/07/27 07:50:42;;;;;;;3.92;3.20;;;;;;;-139.38;100.00;63230.50;5045352;28;20272;-70
2021/07/27 07:54:08;;;;;;;4.45;3.25;;;;;;;-139.38;100.00;63230.50;5038636;28;20272;-71
2021/07/27 07:57:34;;;;;;;7.32;3.38;;;;;;;-139.38;100.00;63230.50;5052771;28;20950;-71
2021/07/27 08:01:00;;;;;;;7.22;3.38;;;;;;;-139.38;100.00;63230.50;5051915;28;20204;-72
2021/07/27 08:04:26;;;;;;;5.53;3.70;;;;;;;-139.38;100.00;63230.50;5045148;28;20205;-72
2021/07/27 08:07:53;;;;;;;3.63;2.90;;;;;;;-139.38;100.00;63230.50;5047556;28;20209;-72
2021/07/27 08:11:19;;;;;;;6.00;3.53;;;;;;;-139.38;100.00;63230.50;5047233;28;20201;-72
2021/07/27 08:14:45;;;;;;;4.57;3.20;;;;;;;-139.38;100.00;63230.50;5052535;28;20225;-72
2021/07/27 08:18:11;;;;;;;7.28;3.95;;;;;;;-139.38;100.00;63230.50;5049448;28;20217;-72
2021/07/27 08:21:37;;;;;;;4.60;3.65;;;;;;;-139.38;100.00;63230.50;5044257;28;20206;-72
2021/07/27 08:25:05;;;;;;;7.93;3.55;;;;;;;-139.38;100.00;63230.50;5041110;28;20298;-71
2021/07/27 08:28:30;;;;;;;8.48;3.75;;;;;;;-139.38;100.00;63230.50;5047358;28;20206;-71
2021/07/27 08:31:56;;;;;;;4.47;3.30;;;;;;;-139.38;100.00;63230.50;5053552;28;20221;-71
2021/07/27 08:35:23;;;;;;;6.05;3.75;;;;;;;-139.38;100.00;63230.50;5043018;28;20221;-72
2021/07/27 08:38:18;;;;;;;4.50;3.47;;;;;;;39.57;33.72;97803.28;5050219;28;20231;-72
2021/07/27 08:41:46;;;;;;;6.32;3.88;;;;;;;-139.38;100.00;63230.50;5051873;28;20447;-72
2021/07/27 08:44:19;;;;;;;5.70;3.63;;;;;;;41.11;20.65;97867.75;5057286;28;20208;-72
2021/07/27 08:47:46;;;;;;;8.07;3.60;;;;;;;-139.38;100.00;63230.50;5055280;28;20205;-72
2021/07/27 08:51:12;;;;;;;5.10;3.65;;;;;;;-139.38;100.00;63230.50;5045952;28;20212;-71
2021/07/27 08:54:43;;;;;;;7.55;3.58;;;;;;;-139.38;100.00;63230.50;5059229;28;20218;-70
2021/07/27 08:58:12;;;;;;;4.93;3.22;;;;;;;-139.38;100.00;63230.50;5055699;28;20614;-71
2021/07/27 09:01:38;;;;;;;7.47;3.92;;;;;;;-139.38;100.00;63230.50;5060192;28;20233;-71
2021/07/27 09:05:04;;;;;;;4.63;4.07;;;;;;;-139.38;100.00;63230.50;5053867;28;20198;-72
2021/07/27 09:08:30;;;;;;;6.60;3.75;;;;;;;-139.38;100.00;63230.50;5047589;28;20684;-72
2021/07/27 09:11:59;;;;;;;4.57;3.80;;;;;;;-139.38;100.00;63230.50;5046071;28;20202;-73
2021/07/27 09:15:27;;;;;;;5.43;4.45;;;;;;;-139.38;100.00;63230.50;5042646;28;20222;-73
2021/07/27 09:19:00;;;;;;;5.70;4.13;;;;;;;-139.38;100.00;63230.50;5051694;28;20232;-72
2021/07/27 09:22:26;;;;;;;4.60;3.92;;;;;;;-139.38;100.00;63230.50;5051060;28;20271;-73
2021/07/27 09:25:52;;;;;;;5.32;3.70;;;;;;;-139.38;100.00;63230.50;5043876;28;20871;-73
2021/07/27 09:28:46;;;;;;;6.43;3.97;;;;;;;41.11;20.65;97867.75;5049044;28;20232;-73
2021/07/27 09:31:15;;;;;;;6.32;4.18;;;;;;;38.64;21.70;97844.25;5039347;28;20198;-72
2021/07/27 09:33:42;;;;;;;5.78;3.88;;;;;;;40.47;20.48;97846.59;5040680;28;20681;-73
2021/07/27 09:36:09;;;;;;;4.57;3.58;;;;;;;41.12;19.79;97852.53;5045614;28;20202;-74
2021/07/27 09:38:37;;;;;;;5.40;4.13;;;;;;;42.33;18.43;97843.97;5049664;28;20673;-72
2021/07/27 09:41:06;;;;;;;5.70;3.58;;;;;;;42.07;19.61;97845.34;5045090;28;20298;-73
2021/07/27 09:43:34;;;;;;;4.15;3.75;;;;;;;41.73;19.66;97847.13;5044565;28;20205;-71
2021/07/27 09:46:02;;;;;;;5.47;4.40;;;;;;;38.88;21.79;97838.03;5038242;28;20213;-72
2021/07/27 09:48:33;;;;;;;6.00;4.15;;;;;;;40.88;19.74;97848.56;5051975;28;20230;-72
2021/07/27 09:51:00;;;;;;;7.85;3.70;;;;;;;40.52;20.67;97841.38;5050496;28;20622;-73
2021/07/27 09:53:29;;;;;;;6.13;3.50;;;;;;;40.80;21.05;97835.81;5050105;28;20206;-72
2021/07/27 09:55:57;;;;;;;5.10;3.40;;;;;;;42.24;19.06;97847.25;5048784;28;20217;-73
2021/07/27 09:59:23;;;;;;;6.15;3.83;;;;;;;-139.38;100.00;63230.50;5046013;28;20233;-71
2021/07/27 10:02:52;;;;;;;6.25;3.70;;;;;;;-139.38;100.00;63230.50;5043377;28;20221;-72
2021/07/27 10:06:23;;;;;;;4.60;3.63;;;;;;;-139.38;100.00;63230.50;5042589;28;20229;-72
2021/07/27 10:09:54;;;;;;;6.15;3.78;;;;;;;-139.38;100.00;63230.50;5044533;28;20573;-71
2021/07/27 10:13:21;;;;;;;7.05;4.00;;;;;;;-139.38;100.00;63230.50;5048685;28;20275;-74
2021/07/27 10:16:47;;;;;;;5.15;3.50;;;;;;;-139.38;100.00;63230.50;5038067;28;20247;-74
2021/07/27 10:20:22;;;;;;;4.25;3.38;;;;;;;-139.38;100.00;63230.50;5049659;28;20225;-75
2021/07/27 10:23:48;;;;;;;5.82;3.92;;;;;;;-139.38;100.00;63230.50;5039013;28;20207;-74
2021/07/27 10:27:25;;;;;;;5.47;3.47;;;;;;;-139.38;100.00;63230.50;5044143;28;20196;-72
2021/07/27 10:45:17;;;;;;;6.90;3.50;;;;;;;41.02;19.25;97840.19;1345399;22;20416;-73
2021/07/27 10:47:49;;;;;;;3.67;3.03;;;;;;;43.98;15.93;97848.63;5068957;28;20263;-74
2021/07/27 10:50:17;;;;;;;5.45;3.78;;;;;;;43.62;17.10;97844.69;5067431;28;20209;-71
2021/07/27 10:52:45;;;;;;;4.97;3.72;;;;;;;40.87;19.28;97830.19;5069277;28;20201;-72
2021/07/27 10:55:13;;;;;;;4.18;3.70;;;;;;;40.87;19.28;97830.19;5059316;28;20226;-70
2021/07/27 10:57:49;;;;;;;5.93;3.50;;;;;;;43.96;16.64;97822.91;5061457;28;20645;-73
2021/07/27 11:00:18;;;;;;;5.03;3.50;;;;;;;43.73;16.54;97837.72;5058987;28;20689;-72
2021/07/27 11:02:55;;;;;;;3.08;2.72;;;;;;;40.28;20.26;97822.59;5051987;28;20221;-73
2021/07/27 11:05:25;;;;;;;4.95;3.38;;;;;;;42.93;17.38;97819.78;5060982;28;20229;-75
2021/07/27 11:07:52;;;;;;;4.80;3.40;;;;;;;41.88;18.23;97829.03;5057832;28;20216;-71
2021/07/27 11:10:21;;;;;;;5.63;3.22;;;;;;;43.50;17.14;97812.31;5051498;28;20893;-73
2021/07/27 11:12:49;;;;;;;5.03;3.40;;;;;;;43.08;17.21;97815.63;5054814;28;20691;-73
2021/07/27 11:15:19;;;;;;;5.13;3.75;;;;;;;44.20;16.89;97814.16;5052888;28;20230;-71
2021/07/27 11:17:47;;;;;;;5.28;3.38;;;;;;;43.94;17.20;97817.75;5064686;28;20294;-72
2021/07/27 11:20:16;;;;;;;4.70;3.28;;;;;;;44.07;17.02;97815.91;5057041;28;20212;-74
2021/07/27 11:22:46;;;;;;;4.47;3.40;;;;;;;44.11;16.60;97821.47;5054253;28;20587;-70
2021/07/27 11:25:16;;;;;;;3.92;3.15;;;;;;;45.03;16.29;97813.13;5058706;28;20294;-72
2021/07/27 11:27:43;;;;;;;4.80;3.38;;;;;;;44.25;16.58;97813.66;5058726;28;20201;-73
2021/07/27 11:30:12;;;;;;;3.90;3.20;;;;;;;45.09;15.77;97800.13;5071399;28;20206;-73
2021/07/27 11:32:46;;;;;;;8.50;3.63;;;;;;;46.42;14.87;97806.44;5070138;28;20209;-72
2021/07/27 11:35:15;;;;;;;7.32;3.63;;;;;;;44.73;16.12;97797.13;5058933;28;20239;-73
2021/07/27 11:37:43;;;;;;;14.52;3.10;;;;;;;45.32;15.43;97795.22;5065729;28;20216;-72
2021/07/27 11:40:23;;;;;;;4.25;3.78;;;;;;;43.71;16.39;97786.69;5068257;28;20193;-72
2021/07/27 11:43:00;;;;;;;3.15;2.67;;;;;;;43.01;17.13;97790.41;5067550;28;20203;-73
2021/07/27 11:45:28;;;;;;;4.00;3.17;;;;;;;45.37;14.97;97786.25;5063570;28;20236;-73
2021/07/27 11:47:57;;;;;;;5.53;3.10;;;;;;;46.37;14.29;97786.41;5059023;28;20224;-72
2021/07/27 11:50:28;;;;;;;4.60;3.70;;;;;;;45.36;15.17;97779.03;5063140;28;20232;-72
2021/07/27 11:52:59;;;;;;;3.53;3.08;;;;;;;45.69;15.21;97779.94;5065136;28;20208;-72
2021/07/27 11:55:31;;;;;;;3.95;3.60;;;;;;;46.12;14.39;97769.25;5060676;28;20236;-71
2021/07/27 11:58:00;;;;;;;3.55;2.85;;;;;;;45.71;15.66;97777.47;5059424;28;20208;-71
2021/07/27 12:00:28;;;;;;;5.22;3.60;;;;;;;47.11;14.22;97775.97;5062063;28;20224;-72
2021/07/27 12:02:57;;;;;;;4.88;3.15;;;;;;;47.72;13.56;97765.22;5054397;28;20214;-70
2021/07/27 12:05:24;;;;;;;3.00;2.70;;;;;;;41.66;17.62;97763.06;5056195;28;20721;-71
2021/07/27 12:07:51;;;;;;;5.15;2.83;;;;;;;43.00;16.42;97748.72;5061583;28;20232;-72
2021/07/27 12:10:20;;;;;;;3.85;2.90;;;;;;;42.58;16.73;97749.13;5059410;28;20278;-72
2021/07/27 12:12:47;;;;;;;3.10;2.80;;;;;;;40.80;18.38;97751.00;5060569;28;20229;-73
2021/07/27 12:15:17;;;;;;;3.45;2.88;;;;;;;43.73;16.58;97756.16;5057551;28;20820;-73
2021/07/27 12:17:45;;;;;;;4.25;3.13;;;;;;;42.52;17.18;97754.38;5054661;28;20202;-72
2021/07/27 12:21:13;;;;;;;4.15;3.33;;;;;;;-139.38;100.00;63230.50;5058228;28;20218;-73
2021/07/27 12:24:38;;;;;;;4.10;3.17;;;;;;;-139.38;100.00;63230.50;5061990;28;20205;-70
2021/07/27 12:27:06;;;;;;;3.22;2.58;;;;;;;45.89;15.55;97747.59;5060190;28;20310;-70
2021/07/27 12:29:33;;;;;;;3.25;2.88;;;;;;;46.79;13.76;97756.25;5057678;28;20224;-70
2021/07/27 12:32:01;;;;;;;3.95;3.03;;;;;;;44.33;15.93;97743.97;5059249;28;20198;-72
2021/07/27 12:34:28;;;;;;;3.88;2.92;;;;;;;45.95;14.50;97740.19;5059497;28;20217;-72
2021/07/27 12:36:57;;;;;;;4.90;3.20;;;;;;;46.15;14.62;97740.94;5061281;28;20230;-72
2021/07/27 12:39:25;;;;;;;4.82;3.00;;;;;;;45.35;14.64;97737.97;5059864;28;20233;-75
2021/07/27 12:41:52;;;;;;;3.90;2.88;;;;;;;42.73;17.09;97733.72;5059806;28;20206;-76
2021/07/27 12:44:20;;;;;;;4.40;2.95;;;;;;;42.63;17.62;97732.66;5064202;28;20300;-78
2021/07/27 12:46:49;;;;;;;3.75;2.78;;;;;;;43.85;16.73;97721.84;5059525;28;20305;-74
2021/07/27 12:49:17;;;;;;;4.57;2.80;;;;;;;44.26;15.30;97725.19;5069500;28;20202;-70
2021/07/27 12:51:45;;;;;;;3.30;2.72;;;;;;;43.20;16.56;97718.72;5057875;28;20202;-70
2021/07/27 12:54:13;;;;;;;4.35;2.70;;;;;;;44.87;15.37;97723.63;5062866;28;20979;-69
2021/07/27 12:56:41;;;;;;;3.17;2.65;;;;;;;44.61;15.10;97727.38;5061469;28;20225;-69
2021/07/27 12:59:09;;;;;;;3.20;2.60;;;;;;;45.59;14.34;97730.19;5057745;28;20217;-70
2021/07/27 13:01:36;;;;;;;3.42;2.70;;;;;;;45.46;15.17;97732.09;5052419;28;20300;-68
2021/07/27 13:04:04;;;;;;;3.05;2.67;;;;;;;44.26;15.84;97725.19;5060454;28;20285;-68
2021/07/27 13:06:34;;;;;;;3.08;2.78;;;;;;;43.49;16.10;97715.13;5067653;28;20223;-68
2021/07/27 13:09:01;;;;;;;3.80;3.10;;;;;;;45.20;14.77;97719.75;5053445;28;20198;-67
2021/07/27 13:11:31;;;;;;;4.57;2.80;;;;;;;45.25;14.99;97708.00;5061411;28;20241;-67
2021/07/27 13:13:58;;;;;;;3.38;2.63;;;;;;;41.12;17.91;97704.09;5061622;28;20274;-68
2021/07/27 13:16:25;;;;;;;3.67;3.03;;;;;;;39.55;19.91;97694.69;5060062;28;20235;-68
2021/07/27 13:18:53;;;;;;;5.75;3.15;;;;;;;41.45;18.40;97695.13;5067208;28;20231;-67
2021/07/27 13:21:21;;;;;;;3.45;2.97;;;;;;;43.75;16.45;97696.69;5057592;28;20205;-69
2021/07/27 13:23:48;;;;;;;3.45;2.78;;;;;;;44.12;15.91;97702.88;5054884;28;20202;-69
2021/07/27 13:26:15;;;;;;;5.47;2.90;;;;;;;41.26;17.76;97707.63;5036799;28;20228;-68
2021/07/27 13:28:44;;;;;;;2.92;2.63;;;;;;;40.91;18.40;97696.56;5038525;28;20723;-69
2021/07/27 13:31:11;;;;;;;4.65;2.97;;;;;;;43.14;17.06;97689.50;5039547;28;20214;-70
2021/07/27 13:33:39;;;;;;;4.10;2.95;;;;;;;44.61;16.14;97689.94;5035328;28;20213;-70
2021/07/27 13:36:06;;;;;;;5.72;2.95;;;;;;;46.47;14.74;97694.94;5041028;28;20237;-70
2021/07/27 13:38:35;;;;;;;4.88;2.92;;;;;;;43.85;16.09;97687.28;5036224;28;20220;-69
2021/07/27 13:41:03;;;;;;;4.22;2.95;;;;;;;43.53;16.82;97679.34;5035201;28;20220;-70
2021/07/27 13:43:30;;;;;;;4.75;2.75;;;;;;;46.51;14.33;97678.69;5044416;28;20220;-70
2021/07/27 13:45:59;;;;;;;5.22;2.83;;;;;;;43.63;16.21;97683.19;5039194;28;20888;-69
2021/07/27 13:48:27;;;;;;;4.30;2.97;;;;;;;44.96;15.43;97667.53;5045386;28;20221;-71
2021/07/27 13:50:54;;;;;;;5.05;3.35;;;;;;;45.34;15.11;97663.06;5059546;28;20202;-72
2021/07/27 13:53:21;;;;;;;4.60;3.10;;;;;;;46.46;13.91;97671.53;5054551;28;20202;-76
2021/07/27 13:55:48;;;;;;;4.93;2.72;;;;;;;46.14;14.06;97667.97;5055816;28;20222;-71
2021/07/27 13:58:16;;;;;;;4.15;3.20;;;;;;;46.52;14.19;97657.69;5063685;28;20225;-71
2021/07/27 14:00:43;;;;;;;3.92;2.78;;;;;;;44.47;15.84;97668.47;5055490;28;20209;-71
2021/07/27 14:03:12;;;;;;;5.35;3.13;;;;;;;47.84;13.35;97660.53;5060680;28;20213;-74
2021/07/27 14:05:40;;;;;;;3.60;2.63;;;;;;;46.51;14.21;97668.19;5067956;28;20220;-72
2021/07/27 14:08:07;;;;;;;5.70;3.38;;;;;;;45.76;14.89;97672.56;5061251;28;20212;-71
2021/07/27 14:10:35;;;;;;;4.47;3.15;;;;;;;45.12;15.30;97672.41;5064945;28;20201;-71
2021/07/27 14:13:02;;;;;;;5.22;3.45;;;;;;;46.07;14.53;97665.34;5054245;28;20198;-73
2021/07/27 14:15:29;;;;;;;7.75;2.90;;;;;;;45.09;14.90;97662.00;5058262;28;20234;-72
2021/07/27 14:17:57;;;;;;;5.00;2.80;;;;;;;44.85;15.27;97646.41;5054668;28;20216;-72
2021/07/27 14:20:26;;;;;;;4.82;2.70;;;;;;;45.80;15.51;97643.00;5066694;28;20205;-73
2021/07/27 14:22:53;;;;;;;3.22;2.92;;;;;;;47.60;14.06;97647.97;5064161;28;20680;-72
2021/07/27 14:25:21;;;;;;;4.05;3.20;;;;;;;45.12;15.47;97653.47;5056185;28;20248;-74
2021/07/27 14:27:48;;;;;;;4.43;3.30;;;;;;;47.99;13.91;97641.84;5051340;28;20233;-72
2021/07/27 14:30:17;;;;;;;4.65;2.88;;;;;;;46.34;15.01;97643.22;5060438;28;20318;-72
2021/07/27 14:32:45;;;;;;;3.92;2.65;;;;;;;46.59;14.08;97643.34;5059672;28;20206;-73
2021/07/27 14:35:13;;;;;;;3.65;2.97;;;;;;;46.30;15.07;97634.09;5050705;28;20230;-73
2021/07/27 14:37:42;;;;;;;6.32;3.22;;;;;;;43.89;17.54;97624.13;5051472;28;20230;-73
2021/07/27 14:40:10;;;;;;;4.10;3.55;;;;;;;43.37;17.61;97641.84;5051809;28;20214;-73